createdAt,value
2022-11-08T00:02:07.510Z,20.45
2022-11-08T00:05:29.035Z,22.45
2022-11-08T00:08:53.776Z,19.60
2022-11-08T00:12:15.051Z,20.77
2022-11-08T00:15:18.103Z,19.73
2022-11-08T00:18:20.915Z,21.27
2022-11-08T00:21:26.784Z,19.45
2022-11-08T00:24:29.503Z,18.50
2022-11-08T00:27:35.485Z,18.67
2022-11-08T00:30:38.222Z,17.97
2022-11-08T00:33:41.089Z,19.40
2022-11-08T00:36:44.934Z,18.77
2022-11-08T00:39:48.039Z,19.23
2022-11-08T00:42:50.731Z,20.55
2022-11-08T00:45:56.440Z,20.07
2022-11-08T00:48:59.111Z,19.85
2022-11-08T00:52:02.122Z,20.27
2022-11-08T00:55:05.287Z,18.45
2022-11-08T00:58:08.025Z,18.67
2022-11-08T01:01:12.784Z,18.30
2022-11-08T01:04:17.660Z,17.45
2022-11-08T01:07:20.469Z,18.83
2022-11-08T01:10:23.337Z,19.58
2022-11-08T01:13:26.100Z,18.17
2022-11-08T01:16:31.971Z,17.33
2022-11-08T01:19:34.753Z,16.77
2022-11-08T01:22:37.599Z,16.65
2022-11-08T01:25:42.304Z,16.75
2022-11-08T01:28:45.308Z,17.20
2022-11-08T01:31:50.937Z,16.60
2022-11-08T01:34:54.936Z,15.20
2022-11-08T01:37:57.673Z,14.95
2022-11-08T01:41:00.480Z,15.90
2022-11-08T01:44:03.248Z,15.23
2022-11-08T01:47:09.101Z,14.20
2022-11-08T01:50:15.153Z,14.25
2022-11-08T01:53:18.200Z,14.15
2022-11-08T01:56:21.411Z,13.43
2022-11-08T01:59:27.258Z,14.02
2022-11-08T02:02:29.994Z,13.97
2022-11-08T02:05:34.150Z,13.15
2022-11-08T02:08:41.925Z,12.95
2022-11-08T02:11:45.275Z,13.20
2022-11-08T02:14:48.348Z,12.75
2022-11-08T02:17:51.461Z,12.63
2022-11-08T02:21:06.178Z,12.95
2022-11-08T02:24:11.304Z,11.80
2022-11-08T02:27:19.027Z,11.88
2022-11-08T02:30:21.977Z,11.48
2022-11-08T02:33:24.801Z,11.43
2022-11-08T02:36:27.572Z,11.73
2022-11-08T02:39:30.912Z,11.23
2022-11-08T02:42:38.883Z,11.35
2022-11-08T02:45:41.617Z,11.00
2022-11-08T02:48:47.442Z,11.23
2022-11-08T02:51:52.894Z,12.02
2022-11-08T02:54:58.520Z,11.80
2022-11-08T02:58:01.813Z,10.80
2022-11-08T03:01:04.684Z,10.82
2022-11-08T03:04:07.504Z,11.23
2022-11-08T03:07:10.401Z,10.68
2022-11-08T03:10:14.179Z,10.68
2022-11-08T03:13:17.078Z,10.23
2022-11-08T03:16:19.874Z,9.85
2022-11-08T03:19:22.785Z,10.50
2022-11-08T03:22:28.744Z,10.18
2022-11-08T03:25:31.818Z,10.60
2022-11-08T03:28:34.643Z,9.68
2022-11-08T03:31:37.814Z,9.85
2022-11-08T03:34:40.696Z,10.17
2022-11-08T03:37:50.751Z,10.20
2022-11-08T03:40:53.579Z,9.40
2022-11-08T03:43:56.396Z,9.82
2022-11-08T03:47:00.289Z,9.18
2022-11-08T03:50:09.710Z,9.50
2022-11-08T03:53:12.454Z,10.00
2022-11-08T03:56:18.078Z,9.60
2022-11-08T03:59:20.806Z,9.35
2022-11-08T04:02:23.929Z,9.35
2022-11-08T04:05:27.141Z,8.93
2022-11-08T04:08:30.633Z,9.35
2022-11-08T04:11:52.062Z,9.07
2022-11-08T04:15:13.955Z,8.65
2022-11-08T04:18:38.952Z,7.95
2022-11-08T04:21:47.390Z,8.23
2022-11-08T04:24:50.264Z,8.75
2022-11-08T04:27:53.139Z,9.35
2022-11-08T04:31:03.087Z,8.38
2022-11-08T04:34:08.817Z,8.80
2022-11-08T04:37:20.941Z,15.83
2022-11-08T04:40:27.343Z,12.73
2022-11-08T04:43:33.840Z,11.02
2022-11-08T04:46:37.090Z,11.35
2022-11-08T04:49:42.697Z,15.18
2022-11-08T04:52:51.915Z,13.43
2022-11-08T04:56:03.419Z,12.30
2022-11-08T04:59:11.679Z,12.15
2022-11-08T05:02:15.130Z,11.00
2022-11-08T05:05:22.045Z,10.07
2022-11-08T05:08:24.824Z,9.30
2022-11-08T05:11:30.106Z,9.93
2022-11-08T05:14:32.936Z,10.48
2022-11-08T05:17:39.184Z,9.52
2022-11-08T05:21:00.395Z,10.20
2022-11-08T05:24:04.983Z,9.83
2022-11-08T05:27:09.335Z,9.45
2022-11-08T05:30:12.435Z,9.70
2022-11-08T05:33:16.159Z,9.70
2022-11-08T05:36:19.391Z,10.30
2022-11-08T05:39:22.168Z,9.70
2022-11-08T05:42:24.892Z,9.48
2022-11-08T05:45:30.518Z,9.30
2022-11-08T05:48:33.379Z,10.20
2022-11-08T05:51:39.375Z,9.30
2022-11-08T05:54:42.180Z,10.70
2022-11-08T05:57:45.071Z,10.57
2022-11-08T06:00:48.068Z,10.23
2022-11-08T06:03:51.048Z,10.55
2022-11-08T06:06:54.121Z,11.23
2022-11-08T06:09:57.097Z,11.13
2022-11-08T06:13:01.329Z,13.35
2022-11-08T06:16:06.669Z,13.70
2022-11-08T06:19:09.480Z,20.73
2022-11-08T06:22:12.321Z,29.55
2022-11-08T06:25:15.128Z,23.83
2022-11-08T06:28:18.168Z,18.85
2022-11-08T06:31:21.263Z,15.82
2022-11-08T06:34:24.046Z,13.18
2022-11-08T06:37:26.865Z,11.18
2022-11-08T06:40:30.008Z,11.87
2022-11-08T06:43:33.514Z,15.35
2022-11-08T06:46:36.392Z,12.68
2022-11-08T06:49:39.250Z,12.80
2022-11-08T06:52:41.966Z,13.15
2022-11-08T06:55:44.814Z,10.90
2022-11-08T06:58:47.762Z,17.62
2022-11-08T07:01:50.934Z,15.73
2022-11-08T07:04:53.804Z,17.35
2022-11-08T07:08:00.524Z,15.82
2022-11-08T07:11:03.473Z,13.90
2022-11-08T07:14:06.501Z,16.02
2022-11-08T07:17:09.390Z,16.77
2022-11-08T07:20:12.742Z,16.20
2022-11-08T07:23:15.544Z,18.20
2022-11-08T07:26:18.568Z,18.90
2022-11-08T07:29:21.428Z,19.42
2022-11-08T07:32:24.323Z,19.37
2022-11-08T07:35:30.532Z,20.05
2022-11-08T07:38:33.516Z,20.08
2022-11-08T07:41:36.938Z,19.23
2022-11-08T07:44:40.019Z,18.08
2022-11-08T07:47:42.892Z,18.40
2022-11-08T07:50:47.070Z,17.95
2022-11-08T07:53:50.191Z,18.45
2022-11-08T07:56:52.754Z,19.57
2022-11-08T07:59:55.547Z,17.83
2022-11-08T08:03:00.085Z,16.27
2022-11-08T08:06:03.196Z,15.98
2022-11-08T08:09:06.101Z,15.75
2022-11-08T08:12:08.937Z,15.27
2022-11-08T08:15:11.890Z,15.80
2022-11-08T08:18:14.828Z,16.40
2022-11-08T08:21:17.715Z,16.00
2022-11-08T08:24:20.566Z,14.90
2022-11-08T08:27:23.369Z,14.07
2022-11-08T08:30:26.327Z,13.35
2022-11-08T08:33:34.209Z,13.98
2022-11-08T08:36:37.750Z,13.85
2022-11-08T08:39:40.682Z,14.70
2022-11-08T08:42:43.569Z,14.07
2022-11-08T08:45:46.426Z,16.40
2022-11-08T08:48:49.710Z,15.43
2022-11-08T08:51:52.570Z,15.65
2022-11-08T08:54:55.375Z,13.95
2022-11-08T08:57:58.321Z,13.37
2022-11-08T09:04:28.867Z,12.05
2022-11-08T09:07:31.830Z,12.57
2022-11-08T09:10:34.620Z,12.30
2022-11-08T09:13:37.867Z,11.57
2022-11-08T09:16:40.998Z,11.48
2022-11-08T09:19:43.885Z,10.88
2022-11-08T09:22:46.665Z,10.80
2022-11-08T09:25:49.575Z,12.00
2022-11-08T09:28:52.692Z,11.00
2022-11-08T09:31:56.528Z,10.68
2022-11-08T09:35:00.239Z,11.75
2022-11-08T09:38:03.137Z,11.93
2022-11-08T09:41:33.179Z,11.35
2022-11-08T09:45:09.127Z,10.20
2022-11-08T09:48:26.379Z,10.27
2022-11-08T09:51:31.904Z,9.18
2022-11-08T09:54:42.474Z,11.43
2022-11-08T09:58:23.693Z,11.38
2022-11-08T10:01:27.606Z,11.40
2022-11-08T10:04:32.510Z,11.55
2022-11-08T10:07:58.514Z,10.45
2022-11-08T10:11:10.705Z,10.88
2022-11-08T10:14:20.250Z,11.07
2022-11-08T10:17:35.462Z,12.50
2022-11-08T10:20:41.209Z,11.25
2022-11-08T10:24:10.015Z,12.80
2022-11-08T10:27:25.150Z,10.43
2022-11-08T10:30:34.041Z,10.27
2022-11-08T10:33:50.164Z,9.63
2022-11-08T10:36:55.112Z,9.60
2022-11-08T10:40:06.421Z,8.77
2022-11-08T10:43:16.080Z,9.15
2022-11-08T10:46:42.033Z,10.93
2022-11-08T10:49:45.310Z,13.97
2022-11-08T10:52:54.626Z,11.27
2022-11-08T10:56:05.485Z,11.20
2022-11-08T10:59:31.459Z,11.55
2022-11-08T11:02:35.773Z,12.00
2022-11-08T11:05:42.524Z,10.70
2022-11-08T11:08:50.673Z,10.60
2022-11-08T11:11:58.187Z,10.38
2022-11-08T11:15:04.272Z,10.43
2022-11-08T11:18:24.765Z,10.30
2022-11-08T11:21:36.379Z,11.13
2022-11-08T11:24:51.129Z,10.60
2022-11-08T11:28:00.813Z,10.90
2022-11-08T11:31:16.470Z,10.05
2022-11-08T11:34:19.296Z,10.17
2022-11-08T11:37:31.274Z,12.02
2022-11-08T11:40:38.497Z,10.82
2022-11-08T11:43:44.195Z,9.40
2022-11-08T11:47:06.644Z,10.00
2022-11-08T11:50:33.545Z,9.80
2022-11-08T11:53:39.316Z,10.32
2022-11-08T11:57:02.411Z,10.07
2022-11-08T12:00:07.923Z,11.00
2022-11-08T12:03:29.547Z,11.10
2022-11-08T12:06:50.770Z,11.03
2022-11-08T12:10:09.193Z,11.82
2022-11-08T12:13:44.267Z,11.98
2022-11-08T12:17:28.212Z,11.50
2022-11-08T12:20:50.737Z,11.38
2022-11-08T12:23:56.588Z,12.40
2022-11-08T12:27:41.172Z,11.50
2022-11-08T12:31:01.609Z,12.13
2022-11-08T12:34:14.853Z,11.23
2022-11-08T12:37:31.002Z,10.88
2022-11-08T12:40:43.713Z,10.53
2022-11-08T12:44:11.160Z,10.88
2022-11-08T12:47:16.963Z,11.15
2022-11-08T12:50:34.215Z,10.63
2022-11-08T12:54:09.797Z,10.48
2022-11-08T12:57:16.705Z,11.23
2022-11-08T13:00:20.540Z,11.20
2022-11-08T13:03:46.256Z,11.43
2022-11-08T13:07:00.569Z,11.45
2022-11-08T13:10:24.508Z,11.93
2022-11-08T13:13:46.317Z,12.13
2022-11-08T13:17:19.086Z,12.30
2022-11-08T13:20:39.531Z,11.10
2022-11-08T13:23:42.592Z,11.32
2022-11-08T13:26:46.580Z,13.38
2022-11-08T13:29:49.798Z,11.27
2022-11-08T13:33:01.337Z,10.82
2022-11-08T13:36:31.553Z,10.25
2022-11-08T13:40:01.387Z,10.68
2022-11-08T13:43:16.986Z,9.27
2022-11-08T13:46:29.956Z,10.30
2022-11-08T13:49:33.191Z,10.35
2022-11-08T13:52:48.363Z,10.25
2022-11-08T13:55:57.671Z,9.70
2022-11-08T13:59:32.547Z,9.95
2022-11-08T14:02:35.666Z,9.87
2022-11-08T14:05:45.709Z,10.27
2022-11-08T14:09:16.835Z,10.38
2022-11-08T14:12:44.711Z,9.95
2022-11-08T14:16:02.361Z,9.60
2022-11-08T14:19:19.895Z,9.73
2022-11-08T14:22:26.627Z,10.25
2022-11-08T14:25:31.852Z,9.38
2022-11-08T14:28:38.314Z,10.10
2022-11-08T14:31:41.928Z,9.65
2022-11-08T14:34:45.490Z,10.67
2022-11-08T14:37:49.082Z,10.75
2022-11-08T14:41:01.133Z,10.23
2022-11-08T14:44:05.158Z,11.38
2022-11-08T14:47:24.703Z,11.27
2022-11-08T14:50:31.615Z,11.73
2022-11-08T14:53:47.899Z,11.12
2022-11-08T14:56:50.735Z,11.00
2022-11-08T14:59:56.477Z,10.80
2022-11-08T15:03:06.781Z,10.45
2022-11-08T15:06:14.302Z,11.23
2022-11-08T15:09:28.969Z,12.77
2022-11-08T15:12:32.003Z,11.63
2022-11-08T15:15:35.118Z,11.30
2022-11-08T15:18:40.145Z,10.38
2022-11-08T15:21:48.903Z,10.53
2022-11-08T15:25:30.358Z,10.40
2022-11-08T15:28:34.969Z,11.02
2022-11-08T15:31:41.973Z,10.90
2022-11-08T15:34:45.439Z,11.90
2022-11-08T15:37:49.508Z,11.73
2022-11-08T15:40:55.133Z,13.02
2022-11-08T15:44:26.229Z,13.35
2022-11-08T15:47:41.694Z,13.38
2022-11-08T15:50:44.622Z,15.00
2022-11-08T15:53:47.407Z,16.60
2022-11-08T15:56:53.171Z,16.02
2022-11-08T15:59:56.368Z,15.52
2022-11-08T16:02:59.419Z,16.70
2022-11-08T16:06:02.487Z,16.23
2022-11-08T16:09:05.973Z,16.90
2022-11-08T16:12:14.321Z,15.48
2022-11-08T16:15:19.740Z,15.00
2022-11-08T16:18:24.041Z,17.20
2022-11-08T16:21:27.126Z,17.10
2022-11-08T16:24:30.088Z,16.80
2022-11-08T16:27:32.978Z,16.50
2022-11-08T16:30:36.608Z,18.48
2022-11-08T16:33:41.423Z,17.37
2022-11-08T16:36:46.627Z,17.17
2022-11-08T16:39:49.980Z,17.00
2022-11-08T16:42:53.663Z,23.02
2022-11-08T16:46:05.552Z,22.27
2022-11-08T16:49:21.966Z,21.17
2022-11-08T16:52:24.986Z,18.37
2022-11-08T16:55:28.058Z,17.67
2022-11-08T16:58:32.304Z,18.83
2022-11-08T17:01:36.597Z,18.65
2022-11-08T17:04:40.469Z,18.17
2022-11-08T17:07:45.041Z,18.90
2022-11-08T17:10:48.111Z,18.97
2022-11-08T17:13:53.060Z,19.10
2022-11-08T17:16:56.441Z,17.52
2022-11-08T17:19:59.540Z,18.33
2022-11-08T17:23:02.885Z,19.47
2022-11-08T17:26:06.729Z,18.40
2022-11-08T17:29:10.021Z,19.23
2022-11-08T17:32:13.134Z,21.23
2022-11-08T17:35:16.332Z,19.42
2022-11-08T17:38:19.731Z,19.83
2022-11-08T17:41:23.061Z,20.70
2022-11-08T17:44:26.537Z,20.23
2022-11-08T17:47:29.448Z,20.37
2022-11-08T17:50:32.939Z,22.23
2022-11-08T17:53:36.947Z,22.63
2022-11-08T17:56:40.081Z,22.47
2022-11-08T17:59:45.395Z,23.02
2022-11-08T18:02:51.509Z,23.65
2022-11-08T18:05:58.876Z,24.23
2022-11-08T18:09:02.366Z,23.07
2022-11-08T18:12:09.746Z,23.20
2022-11-08T18:15:13.063Z,22.92
2022-11-08T18:18:16.927Z,23.30
2022-11-08T18:21:20.314Z,22.77
2022-11-08T18:24:23.549Z,24.53
2022-11-08T18:27:26.638Z,24.57
2022-11-08T18:30:30.319Z,23.48
2022-11-08T18:33:33.688Z,24.73
2022-11-08T18:36:41.201Z,26.05
2022-11-08T18:39:44.702Z,25.07
2022-11-08T18:42:48.090Z,25.40
2022-11-08T18:45:51.797Z,27.02
2022-11-08T18:48:57.323Z,28.33
2022-11-08T18:52:00.834Z,26.92
2022-11-08T18:55:05.643Z,26.17
2022-11-08T18:58:09.576Z,27.40
2022-11-08T19:01:12.943Z,28.02
2022-11-08T19:04:16.712Z,27.98
2022-11-08T19:07:21.968Z,29.50
2022-11-08T19:10:27.759Z,28.83
2022-11-08T19:13:35.741Z,30.37
2022-11-08T19:16:40.920Z,30.75
2022-11-08T19:19:46.978Z,29.50
2022-11-08T19:22:54.984Z,28.38
2022-11-08T19:26:02.057Z,26.20
2022-11-08T19:29:06.208Z,28.07
2022-11-08T19:32:09.843Z,26.95
2022-11-08T19:35:12.925Z,27.02
2022-11-08T19:38:16.344Z,25.80
2022-11-08T19:41:22.375Z,28.12
2022-11-08T19:44:25.959Z,26.57
2022-11-08T19:47:28.941Z,26.85
2022-11-08T19:50:32.213Z,27.45
2022-11-08T19:53:35.421Z,26.95
2022-11-08T19:57:03.374Z,25.83
2022-11-08T20:00:04.051Z,25.57
2022-11-08T20:03:07.798Z,26.58
2022-11-08T20:06:12.462Z,25.40
2022-11-08T20:09:15.667Z,26.80
2022-11-08T20:12:19.051Z,25.93
2022-11-08T20:15:23.548Z,29.23
2022-11-08T20:18:26.598Z,27.65
2022-11-08T20:21:30.129Z,29.00
2022-11-08T20:24:35.433Z,28.45
2022-11-08T20:27:39.261Z,25.80
2022-11-08T20:30:42.071Z,24.40
2022-11-08T20:33:49.029Z,27.37
2022-11-08T20:36:52.217Z,27.33
2022-11-08T20:39:55.318Z,22.40
2022-11-08T20:42:58.324Z,22.70
2022-11-08T20:46:05.997Z,25.03
2022-11-08T20:49:09.679Z,26.25
2022-11-08T20:52:13.317Z,27.62
2022-11-08T20:55:16.518Z,31.12
2022-11-08T20:58:19.855Z,31.33
2022-11-08T21:01:25.513Z,27.90
2022-11-08T21:04:28.874Z,28.42
2022-11-08T21:10:59.300Z,29.85
2022-11-08T21:14:03.521Z,30.03
2022-11-08T21:17:21.402Z,30.33
2022-11-08T21:20:27.030Z,31.98
2022-11-08T21:23:29.875Z,29.55
2022-11-08T21:26:36.996Z,29.77
2022-11-08T21:29:40.226Z,30.73
2022-11-08T21:32:43.164Z,30.07
2022-11-08T21:35:49.541Z,29.33
2022-11-08T21:38:53.738Z,31.52
2022-11-08T21:41:56.777Z,30.30
2022-11-08T21:44:59.834Z,32.17
2022-11-08T21:48:09.856Z,31.80
2022-11-08T21:51:16.491Z,30.88
2022-11-08T21:54:19.273Z,31.20
2022-11-08T21:57:22.084Z,33.10
2022-11-08T22:00:25.268Z,30.77
2022-11-08T22:03:28.403Z,30.97
2022-11-08T22:06:31.340Z,32.42
2022-11-08T22:09:34.212Z,31.05
2022-11-08T22:12:37.016Z,30.45
2022-11-08T22:15:39.905Z,30.67
2022-11-08T22:22:09.166Z,31.23
2022-11-08T22:25:12.053Z,29.90
2022-11-08T22:28:14.892Z,31.33
2022-11-08T22:31:17.909Z,31.60
2022-11-08T22:34:21.193Z,31.93
2022-11-08T22:37:23.939Z,30.75
2022-11-08T22:40:26.799Z,29.27
2022-11-08T22:43:29.688Z,30.55
2022-11-08T22:46:32.529Z,32.15
2022-11-08T22:49:35.281Z,30.13
2022-11-08T22:52:38.096Z,31.42
2022-11-08T22:55:40.825Z,31.45
2022-11-08T22:58:43.744Z,32.85
2022-11-08T23:01:46.525Z,30.73
2022-11-08T23:04:49.373Z,30.00
2022-11-08T23:07:52.239Z,32.40
2022-11-08T23:11:15.373Z,31.95
2022-11-08T23:14:37.627Z,31.90
2022-11-08T23:17:43.250Z,31.67
2022-11-08T23:21:04.428Z,29.17
2022-11-08T23:24:20.248Z,31.90
2022-11-08T23:27:42.568Z,30.35
2022-11-08T23:31:03.773Z,30.80
2022-11-08T23:34:06.510Z,30.87
2022-11-08T23:37:09.293Z,30.97
2022-11-08T23:40:33.160Z,30.42
2022-11-08T23:43:54.201Z,28.15
2022-11-08T23:46:59.081Z,29.50
2022-11-08T23:50:02.098Z,29.73
2022-11-08T23:53:06.062Z,29.53
2022-11-08T23:56:08.981Z,28.30
2022-11-08T23:59:12.378Z,28.95
